sensor_id;sensor_type;location;lat;lon;timestamp;P1;durP1;ratioP1;P2;durP2;ratioP2
10096;SDS011;5087;42.662;23.466;2023-04-15T00:01:29;2.87;;;2.83;;
10096;SDS011;5087;42.662;23.466;2023-04-15T00:03:58;1.90;;;1.90;;
10096;SDS011;5087;42.662;23.466;2023-04-15T00:06:28;1.80;;;1.80;;
10096;SDS011;5087;42.662;23.466;2023-04-15T00:08:57;1.60;;;1.60;;
10096;SDS011;5087;42.662;23.466;2023-04-15T00:11:24;1.40;;;1.40;;
10096;SDS011;5087;42.662;23.466;2023-04-15T00:13:51;1.30;;;1.30;;
10096;SDS011;5087;42.662;23.466;2023-04-15T00:16:18;1.30;;;1.30;;
10096;SDS011;5087;42.662;23.466;2023-04-15T00:18:45;1.50;;;1.50;;
10096;SDS011;5087;42.662;23.466;2023-04-15T00:21:12;1.50;;;1.50;;
10096;SDS011;5087;42.662;23.466;2023-04-15T00:23:39;1.50;;;1.50;;
10096;SDS011;5087;42.662;23.466;2023-04-15T00:26:08;1.50;;;1.50;;
10096;SDS011;5087;42.662;23.466;2023-04-15T00:28:35;1.40;;;1.40;;
10096;SDS011;5087;42.662;23.466;2023-04-15T00:31:02;1.20;;;1.20;;
10096;SDS011;5087;42.662;23.466;2023-04-15T00:33:30;1.10;;;1.10;;
10096;SDS011;5087;42.662;23.466;2023-04-15T00:35:57;1.10;;;1.10;;
10096;SDS011;5087;42.662;23.466;2023-04-15T00:38:24;1.10;;;1.10;;
10096;SDS011;5087;42.662;23.466;2023-04-15T00:40:51;0.90;;;0.90;;
10096;SDS011;5087;42.662;23.466;2023-04-15T00:43:21;0.70;;;0.70;;
10096;SDS011;5087;42.662;23.466;2023-04-15T00:45:48;0.60;;;0.60;;
10096;SDS011;5087;42.662;23.466;2023-04-15T00:48:17;0.40;;;0.40;;
10096;SDS011;5087;42.662;23.466;2023-04-15T00:50:44;0.70;;;0.70;;
10096;SDS011;5087;42.662;23.466;2023-04-15T00:53:11;0.50;;;0.50;;
10096;SDS011;5087;42.662;23.466;2023-04-15T00:55:37;0.50;;;0.50;;
10096;SDS011;5087;42.662;23.466;2023-04-15T00:58:05;0.50;;;0.50;;
10096;SDS011;5087;42.662;23.466;2023-04-15T01:00:34;0.70;;;0.70;;
10096;SDS011;5087;42.662;23.466;2023-04-15T01:03:02;0.80;;;0.80;;
10096;SDS011;5087;42.662;23.466;2023-04-15T01:05:29;0.80;;;0.80;;
10096;SDS011;5087;42.662;23.466;2023-04-15T01:07:55;0.70;;;0.70;;
10096;SDS011;5087;42.662;23.466;2023-04-15T01:10:22;0.60;;;0.60;;
10096;SDS011;5087;42.662;23.466;2023-04-15T01:12:49;0.50;;;0.50;;
10096;SDS011;5087;42.662;23.466;2023-04-15T01:15:16;0.60;;;0.60;;
10096;SDS011;5087;42.662;23.466;2023-04-15T01:17:45;0.50;;;0.50;;
10096;SDS011;5087;42.662;23.466;2023-04-15T01:20:12;0.60;;;0.60;;
10096;SDS011;5087;42.662;23.466;2023-04-15T01:22:41;0.50;;;0.50;;
10096;SDS011;5087;42.662;23.466;2023-04-15T01:25:09;0.50;;;0.50;;
10096;SDS011;5087;42.662;23.466;2023-04-15T01:27:39;0.50;;;0.50;;
10096;SDS011;5087;42.662;23.466;2023-04-15T01:30:07;0.60;;;0.60;;
10096;SDS011;5087;42.662;23.466;2023-04-15T01:32:35;2.10;;;2.00;;
10096;SDS011;5087;42.662;23.466;2023-04-15T01:35:02;0.40;;;0.40;;
10096;SDS011;5087;42.662;23.466;2023-04-15T01:37:29;0.30;;;0.30;;
10096;SDS011;5087;42.662;23.466;2023-04-15T01:39:56;0.30;;;0.30;;
10096;SDS011;5087;42.662;23.466;2023-04-15T01:42:24;0.30;;;0.30;;
10096;SDS011;5087;42.662;23.466;2023-04-15T01:44:54;0.30;;;0.30;;
10096;SDS011;5087;42.662;23.466;2023-04-15T01:47:20;0.40;;;0.40;;
10096;SDS011;5087;42.662;23.466;2023-04-15T01:49:48;0.50;;;0.50;;
10096;SDS011;5087;42.662;23.466;2023-04-15T01:52:15;0.50;;;0.50;;
10096;SDS011;5087;42.662;23.466;2023-04-15T01:54:41;0.40;;;0.40;;
10096;SDS011;5087;42.662;23.466;2023-04-15T01:57:10;0.50;;;0.50;;
10096;SDS011;5087;42.662;23.466;2023-04-15T01:59:37;0.40;;;0.40;;
10096;SDS011;5087;42.662;23.466;2023-04-15T02:02:05;0.20;;;0.20;;
10096;SDS011;5087;42.662;23.466;2023-04-15T02:04:32;0.10;;;0.10;;
10096;SDS011;5087;42.662;23.466;2023-04-15T02:07:02;0.10;;;0.10;;
10096;SDS011;5087;42.662;23.466;2023-04-15T02:09:30;0.10;;;0.10;;
10096;SDS011;5087;42.662;23.466;2023-04-15T02:11:57;0.10;;;0.10;;
10096;SDS011;5087;42.662;23.466;2023-04-15T02:14:25;0.10;;;0.10;;
10096;SDS011;5087;42.662;23.466;2023-04-15T02:16:53;0.10;;;0.10;;
10096;SDS011;5087;42.662;23.466;2023-04-15T02:19:22;0.10;;;0.10;;
10096;SDS011;5087;42.662;23.466;2023-04-15T02:21:49;0.10;;;0.10;;
10096;SDS011;5087;42.662;23.466;2023-04-15T02:24:16;0.10;;;0.10;;
10096;SDS011;5087;42.662;23.466;2023-04-15T02:26:43;0.10;;;0.10;;
10096;SDS011;5087;42.662;23.466;2023-04-15T02:29:11;0.10;;;0.10;;
10096;SDS011;5087;42.662;23.466;2023-04-15T02:31:39;0.10;;;0.10;;
10096;SDS011;5087;42.662;23.466;2023-04-15T02:34:06;0.10;;;0.10;;
10096;SDS011;5087;42.662;23.466;2023-04-15T02:36:35;0.20;;;0.20;;
10096;SDS011;5087;42.662;23.466;2023-04-15T02:39:04;0.10;;;0.10;;
10096;SDS011;5087;42.662;23.466;2023-04-15T02:41:31;0.53;;;0.53;;
10096;SDS011;5087;42.662;23.466;2023-04-15T02:43:58;0.20;;;0.20;;
10096;SDS011;5087;42.662;23.466;2023-04-15T02:46:26;0.30;;;0.30;;
10096;SDS011;5087;42.662;23.466;2023-04-15T02:48:53;0.40;;;0.40;;
10096;SDS011;5087;42.662;23.466;2023-04-15T02:51:21;0.40;;;0.40;;
10096;SDS011;5087;42.662;23.466;2023-04-15T02:53:50;0.50;;;0.50;;
10096;SDS011;5087;42.662;23.466;2023-04-15T02:56:17;0.50;;;0.50;;
10096;SDS011;5087;42.662;23.466;2023-04-15T02:58:48;0.53;;;0.53;;
10096;SDS011;5087;42.662;23.466;2023-04-15T03:01:15;0.50;;;0.50;;
10096;SDS011;5087;42.662;23.466;2023-04-15T03:03:42;0.60;;;0.60;;
10096;SDS011;5087;42.662;23.466;2023-04-15T03:06:09;0.70;;;0.70;;
10096;SDS011;5087;42.662;23.466;2023-04-15T03:08:36;0.50;;;0.50;;
10096;SDS011;5087;42.662;23.466;2023-04-15T03:11:05;0.90;;;0.90;;
10096;SDS011;5087;42.662;23.466;2023-04-15T03:13:36;0.67;;;0.67;;
10096;SDS011;5087;42.662;23.466;2023-04-15T03:16:10;0.60;;;0.60;;
10096;SDS011;5087;42.662;23.466;2023-04-15T03:18:37;0.60;;;0.60;;
10096;SDS011;5087;42.662;23.466;2023-04-15T03:21:06;0.50;;;0.50;;
10096;SDS011;5087;42.662;23.466;2023-04-15T03:23:36;0.80;;;0.80;;
10096;SDS011;5087;42.662;23.466;2023-04-15T03:26:04;0.60;;;0.60;;
10096;SDS011;5087;42.662;23.466;2023-04-15T03:28:32;0.70;;;0.70;;
10096;SDS011;5087;42.662;23.466;2023-04-15T03:31:06;0.60;;;0.60;;
10096;SDS011;5087;42.662;23.466;2023-04-15T03:33:33;0.60;;;0.60;;
10096;SDS011;5087;42.662;23.466;2023-04-15T03:36:03;0.50;;;0.50;;
10096;SDS011;5087;42.662;23.466;2023-04-15T03:38:30;0.50;;;0.50;;
10096;SDS011;5087;42.662;23.466;2023-04-15T03:40:57;0.90;;;0.90;;
10096;SDS011;5087;42.662;23.466;2023-04-15T03:43:25;0.57;;;0.57;;
10096;SDS011;5087;42.662;23.466;2023-04-15T03:45:52;0.50;;;0.50;;
10096;SDS011;5087;42.662;23.466;2023-04-15T03:48:20;0.50;;;0.50;;
10096;SDS011;5087;42.662;23.466;2023-04-15T03:50:47;0.50;;;0.50;;
10096;SDS011;5087;42.662;23.466;2023-04-15T03:53:13;0.40;;;0.40;;
10096;SDS011;5087;42.662;23.466;2023-04-15T03:55:40;0.30;;;0.30;;
10096;SDS011;5087;42.662;23.466;2023-04-15T03:58:07;0.40;;;0.40;;
10096;SDS011;5087;42.662;23.466;2023-04-15T04:00:39;0.50;;;0.50;;
10096;SDS011;5087;42.662;23.466;2023-04-15T04:03:06;0.60;;;0.60;;
10096;SDS011;5087;42.662;23.466;2023-04-15T04:05:33;0.60;;;0.60;;
10096;SDS011;5087;42.662;23.466;2023-04-15T04:08:03;0.50;;;0.50;;
10096;SDS011;5087;42.662;23.466;2023-04-15T04:10:30;0.70;;;0.70;;
10096;SDS011;5087;42.662;23.466;2023-04-15T04:12:57;1.00;;;1.00;;
10096;SDS011;5087;42.662;23.466;2023-04-15T04:15:24;2.23;;;2.13;;
10096;SDS011;5087;42.662;23.466;2023-04-15T04:17:53;1.10;;;1.10;;
10096;SDS011;5087;42.662;23.466;2023-04-15T04:20:20;1.20;;;1.20;;
10096;SDS011;5087;42.662;23.466;2023-04-15T04:22:47;1.30;;;1.30;;
10096;SDS011;5087;42.662;23.466;2023-04-15T04:25:13;1.60;;;1.60;;
10096;SDS011;5087;42.662;23.466;2023-04-15T04:27:40;2.00;;;2.00;;
10096;SDS011;5087;42.662;23.466;2023-04-15T04:30:08;1.73;;;1.73;;
10096;SDS011;5087;42.662;23.466;2023-04-15T04:32:34;2.10;;;2.10;;
10096;SDS011;5087;42.662;23.466;2023-04-15T04:35:03;2.20;;;2.20;;
10096;SDS011;5087;42.662;23.466;2023-04-15T04:37:30;2.70;;;2.70;;
10096;SDS011;5087;42.662;23.466;2023-04-15T04:39:56;2.30;;;2.30;;
10096;SDS011;5087;42.662;23.466;2023-04-15T04:42:23;2.20;;;2.20;;
10096;SDS011;5087;42.662;23.466;2023-04-15T04:44:50;2.20;;;2.20;;
10096;SDS011;5087;42.662;23.466;2023-04-15T04:47:18;2.30;;;2.30;;
10096;SDS011;5087;42.662;23.466;2023-04-15T04:49:45;2.30;;;2.30;;
10096;SDS011;5087;42.662;23.466;2023-04-15T04:52:13;1.90;;;1.90;;
10096;SDS011;5087;42.662;23.466;2023-04-15T04:54:40;2.10;;;2.10;;
10096;SDS011;5087;42.662;23.466;2023-04-15T04:57:07;2.10;;;2.10;;
10096;SDS011;5087;42.662;23.466;2023-04-15T04:59:34;1.50;;;1.50;;
10096;SDS011;5087;42.662;23.466;2023-04-15T05:02:01;2.30;;;2.30;;
10096;SDS011;5087;42.662;23.466;2023-04-15T05:04:28;2.40;;;2.40;;
10096;SDS011;5087;42.662;23.466;2023-04-15T05:06:56;1.97;;;1.97;;
10096;SDS011;5087;42.662;23.466;2023-04-15T05:09:25;1.40;;;1.40;;
10096;SDS011;5087;42.662;23.466;2023-04-15T05:11:51;1.43;;;1.43;;
10096;SDS011;5087;42.662;23.466;2023-04-15T05:14:18;1.50;;;1.50;;
10096;SDS011;5087;42.662;23.466;2023-04-15T05:16:45;1.80;;;1.80;;
10096;SDS011;5087;42.662;23.466;2023-04-15T05:19:12;1.70;;;1.70;;
10096;SDS011;5087;42.662;23.466;2023-04-15T05:21:39;2.40;;;2.40;;
10096;SDS011;5087;42.662;23.466;2023-04-15T05:24:06;2.70;;;2.70;;
10096;SDS011;5087;42.662;23.466;2023-04-15T05:26:34;3.80;;;3.80;;
10096;SDS011;5087;42.662;23.466;2023-04-15T05:29:02;4.60;;;4.50;;
10096;SDS011;5087;42.662;23.466;2023-04-15T05:31:29;4.53;;;4.43;;
10096;SDS011;5087;42.662;23.466;2023-04-15T05:33:56;5.10;;;5.00;;
10096;SDS011;5087;42.662;23.466;2023-04-15T05:36:23;5.70;;;5.60;;
10096;SDS011;5087;42.662;23.466;2023-04-15T05:38:50;5.53;;;5.43;;
10096;SDS011;5087;42.662;23.466;2023-04-15T05:41:17;5.70;;;5.60;;
10096;SDS011;5087;42.662;23.466;2023-04-15T05:43:45;5.30;;;5.20;;
10096;SDS011;5087;42.662;23.466;2023-04-15T05:46:12;4.80;;;4.70;;
10096;SDS011;5087;42.662;23.466;2023-04-15T05:48:39;4.80;;;4.70;;
10096;SDS011;5087;42.662;23.466;2023-04-15T05:51:06;5.40;;;5.30;;
10096;SDS011;5087;42.662;23.466;2023-04-15T05:53:33;5.50;;;5.40;;
10096;SDS011;5087;42.662;23.466;2023-04-15T05:56:00;5.20;;;5.10;;
10096;SDS011;5087;42.662;23.466;2023-04-15T05:58:30;4.80;;;4.70;;
10096;SDS011;5087;42.662;23.466;2023-04-15T06:00:58;4.67;;;4.57;;
10096;SDS011;5087;42.662;23.466;2023-04-15T06:03:26;4.90;;;4.80;;
10096;SDS011;5087;42.662;23.466;2023-04-15T06:05:53;4.70;;;4.60;;
10096;SDS011;5087;42.662;23.466;2023-04-15T06:08:20;5.80;;;5.67;;
10096;SDS011;5087;42.662;23.466;2023-04-15T06:10:47;4.87;;;4.77;;
10096;SDS011;5087;42.662;23.466;2023-04-15T06:13:15;5.30;;;5.20;;
10096;SDS011;5087;42.662;23.466;2023-04-15T06:15:42;5.90;;;5.80;;
10096;SDS011;5087;42.662;23.466;2023-04-15T06:18:10;6.10;;;6.00;;
10096;SDS011;5087;42.662;23.466;2023-04-15T06:20:37;5.73;;;5.63;;
10096;SDS011;5087;42.662;23.466;2023-04-15T06:23:04;6.20;;;6.10;;
10096;SDS011;5087;42.662;23.466;2023-04-15T06:25:31;6.47;;;6.37;;
10096;SDS011;5087;42.662;23.466;2023-04-15T06:27:58;6.70;;;6.53;;
10096;SDS011;5087;42.662;23.466;2023-04-15T06:30:25;6.77;;;6.60;;
10096;SDS011;5087;42.662;23.466;2023-04-15T06:32:51;6.40;;;6.30;;
10096;SDS011;5087;42.662;23.466;2023-04-15T06:35:20;6.43;;;6.33;;
10096;SDS011;5087;42.662;23.466;2023-04-15T06:37:47;6.30;;;6.20;;
10096;SDS011;5087;42.662;23.466;2023-04-15T06:40:14;6.50;;;6.40;;
10096;SDS011;5087;42.662;23.466;2023-04-15T06:42:41;6.40;;;6.30;;
10096;SDS011;5087;42.662;23.466;2023-04-15T06:45:08;6.23;;;6.13;;
10096;SDS011;5087;42.662;23.466;2023-04-15T06:47:35;6.60;;;6.50;;
10096;SDS011;5087;42.662;23.466;2023-04-15T06:50:03;6.70;;;6.50;;
10096;SDS011;5087;42.662;23.466;2023-04-15T06:52:31;6.33;;;6.23;;
10096;SDS011;5087;42.662;23.466;2023-04-15T06:54:58;6.50;;;6.40;;
10096;SDS011;5087;42.662;23.466;2023-04-15T06:57:26;6.40;;;6.30;;
10096;SDS011;5087;42.662;23.466;2023-04-15T06:59:54;6.37;;;6.27;;
10096;SDS011;5087;42.662;23.466;2023-04-15T07:02:21;6.30;;;6.20;;
10096;SDS011;5087;42.662;23.466;2023-04-15T07:04:47;6.40;;;6.30;;
10096;SDS011;5087;42.662;23.466;2023-04-15T07:07:14;6.50;;;6.40;;
10096;SDS011;5087;42.662;23.466;2023-04-15T07:09:43;6.20;;;6.10;;
10096;SDS011;5087;42.662;23.466;2023-04-15T07:12:10;10.70;;;9.67;;
10096;SDS011;5087;42.662;23.466;2023-04-15T07:14:37;6.50;;;6.40;;
10096;SDS011;5087;42.662;23.466;2023-04-15T07:17:04;6.60;;;6.50;;
10096;SDS011;5087;42.662;23.466;2023-04-15T07:19:32;6.40;;;6.30;;
10096;SDS011;5087;42.662;23.466;2023-04-15T07:21:59;5.83;;;5.73;;
10096;SDS011;5087;42.662;23.466;2023-04-15T07:24:28;6.57;;;6.47;;
10096;SDS011;5087;42.662;23.466;2023-04-15T07:26:56;5.80;;;5.70;;
10096;SDS011;5087;42.662;23.466;2023-04-15T07:29:23;5.40;;;5.30;;
10096;SDS011;5087;42.662;23.466;2023-04-15T07:31:50;5.30;;;5.20;;
10096;SDS011;5087;42.662;23.466;2023-04-15T07:34:18;5.47;;;5.37;;
10096;SDS011;5087;42.662;23.466;2023-04-15T07:36:45;5.70;;;5.60;;
10096;SDS011;5087;42.662;23.466;2023-04-15T07:39:14;5.20;;;5.10;;
10096;SDS011;5087;42.662;23.466;2023-04-15T07:41:42;4.97;;;4.87;;
10096;SDS011;5087;42.662;23.466;2023-04-15T07:44:10;5.20;;;5.10;;
10096;SDS011;5087;42.662;23.466;2023-04-15T07:46:37;5.00;;;4.90;;
10096;SDS011;5087;42.662;23.466;2023-04-15T07:49:04;5.43;;;5.33;;
10096;SDS011;5087;42.662;23.466;2023-04-15T07:51:31;5.70;;;5.60;;
10096;SDS011;5087;42.662;23.466;2023-04-15T07:53:58;5.50;;;5.40;;
10096;SDS011;5087;42.662;23.466;2023-04-15T07:56:29;4.97;;;4.87;;
10096;SDS011;5087;42.662;23.466;2023-04-15T07:58:55;4.83;;;4.73;;
10096;SDS011;5087;42.662;23.466;2023-04-15T08:01:23;4.07;;;3.97;;
10096;SDS011;5087;42.662;23.466;2023-04-15T08:03:51;4.60;;;4.50;;
10096;SDS011;5087;42.662;23.466;2023-04-15T08:06:19;5.30;;;5.20;;
10096;SDS011;5087;42.662;23.466;2023-04-15T08:08:45;5.23;;;5.13;;
10096;SDS011;5087;42.662;23.466;2023-04-15T08:11:12;5.10;;;5.00;;
10096;SDS011;5087;42.662;23.466;2023-04-15T08:13:39;5.40;;;5.30;;
10096;SDS011;5087;42.662;23.466;2023-04-15T08:16:17;4.70;;;4.60;;
10096;SDS011;5087;42.662;23.466;2023-04-15T08:18:46;3.80;;;3.80;;
10096;SDS011;5087;42.662;23.466;2023-04-15T08:21:12;4.23;;;4.13;;
10096;SDS011;5087;42.662;23.466;2023-04-15T08:23:39;3.87;;;3.87;;
10096;SDS011;5087;42.662;23.466;2023-04-15T08:26:07;3.77;;;3.77;;
10096;SDS011;5087;42.662;23.466;2023-04-15T08:28:34;4.10;;;4.00;;
10096;SDS011;5087;42.662;23.466;2023-04-15T08:31:04;3.27;;;3.27;;
10096;SDS011;5087;42.662;23.466;2023-04-15T08:33:31;3.40;;;3.40;;
10096;SDS011;5087;42.662;23.466;2023-04-15T08:35:59;3.50;;;3.50;;
10096;SDS011;5087;42.662;23.466;2023-04-15T08:38:27;3.60;;;3.60;;
10096;SDS011;5087;42.662;23.466;2023-04-15T08:40:54;3.70;;;3.70;;
10096;SDS011;5087;42.662;23.466;2023-04-15T08:43:22;2.70;;;2.70;;
10096;SDS011;5087;42.662;23.466;2023-04-15T08:45:51;3.30;;;3.30;;
10096;SDS011;5087;42.662;23.466;2023-04-15T08:48:18;3.47;;;3.47;;
10096;SDS011;5087;42.662;23.466;2023-04-15T08:50:45;3.10;;;3.10;;
10096;SDS011;5087;42.662;23.466;2023-04-15T08:53:14;2.80;;;2.80;;
10096;SDS011;5087;42.662;23.466;2023-04-15T08:55:42;2.97;;;2.97;;
10096;SDS011;5087;42.662;23.466;2023-04-15T08:58:10;2.50;;;2.50;;
10096;SDS011;5087;42.662;23.466;2023-04-15T09:00:37;2.90;;;2.90;;
10096;SDS011;5087;42.662;23.466;2023-04-15T09:03:04;2.60;;;2.60;;
10096;SDS011;5087;42.662;23.466;2023-04-15T09:05:32;3.00;;;3.00;;
10096;SDS011;5087;42.662;23.466;2023-04-15T09:07:59;2.50;;;2.50;;
10096;SDS011;5087;42.662;23.466;2023-04-15T09:10:28;2.47;;;2.47;;
10096;SDS011;5087;42.662;23.466;2023-04-15T09:12:55;2.20;;;2.20;;
10096;SDS011;5087;42.662;23.466;2023-04-15T09:15:22;2.30;;;2.30;;
10096;SDS011;5087;42.662;23.466;2023-04-15T09:17:50;2.60;;;2.60;;
10096;SDS011;5087;42.662;23.466;2023-04-15T09:20:57;2.10;;;2.10;;
10096;SDS011;5087;42.662;23.466;2023-04-15T09:23:30;1.80;;;1.80;;
10096;SDS011;5087;42.662;23.466;2023-04-15T09:25:57;1.90;;;1.90;;
10096;SDS011;5087;42.662;23.466;2023-04-15T09:28:24;1.80;;;1.80;;
10096;SDS011;5087;42.662;23.466;2023-04-15T09:30:54;1.70;;;1.70;;
10096;SDS011;5087;42.662;23.466;2023-04-15T09:33:22;1.60;;;1.60;;
10096;SDS011;5087;42.662;23.466;2023-04-15T09:35:55;1.40;;;1.40;;
10096;SDS011;5087;42.662;23.466;2023-04-15T09:38:23;1.40;;;1.40;;
10096;SDS011;5087;42.662;23.466;2023-04-15T09:40:50;1.30;;;1.30;;
10096;SDS011;5087;42.662;23.466;2023-04-15T09:43:17;1.40;;;1.40;;
10096;SDS011;5087;42.662;23.466;2023-04-15T09:45:46;1.40;;;1.40;;
10096;SDS011;5087;42.662;23.466;2023-04-15T09:48:14;1.40;;;1.40;;
10096;SDS011;5087;42.662;23.466;2023-04-15T09:50:41;1.40;;;1.40;;
10096;SDS011;5087;42.662;23.466;2023-04-15T09:53:08;1.30;;;1.30;;
10096;SDS011;5087;42.662;23.466;2023-04-15T09:55:37;1.30;;;1.30;;
10096;SDS011;5087;42.662;23.466;2023-04-15T09:58:07;1.30;;;1.30;;
10096;SDS011;5087;42.662;23.466;2023-04-15T10:00:35;1.20;;;1.20;;
10096;SDS011;5087;42.662;23.466;2023-04-15T10:03:04;1.30;;;1.30;;
10096;SDS011;5087;42.662;23.466;2023-04-15T10:05:31;1.20;;;1.20;;
10096;SDS011;5087;42.662;23.466;2023-04-15T10:07:58;1.20;;;1.20;;
10096;SDS011;5087;42.662;23.466;2023-04-15T10:10:26;1.30;;;1.30;;
10096;SDS011;5087;42.662;23.466;2023-04-15T10:12:54;1.30;;;1.30;;
10096;SDS011;5087;42.662;23.466;2023-04-15T10:15:22;1.30;;;1.30;;
10096;SDS011;5087;42.662;23.466;2023-04-15T10:17:49;1.30;;;1.30;;
10096;SDS011;5087;42.662;23.466;2023-04-15T10:20:17;1.40;;;1.40;;
10096;SDS011;5087;42.662;23.466;2023-04-15T10:22:45;2.27;;;2.17;;
10096;SDS011;5087;42.662;23.466;2023-04-15T10:25:12;1.47;;;1.47;;
10096;SDS011;5087;42.662;23.466;2023-04-15T10:27:40;1.30;;;1.30;;
10096;SDS011;5087;42.662;23.466;2023-04-15T10:30:09;1.37;;;1.37;;
10096;SDS011;5087;42.662;23.466;2023-04-15T10:32:36;1.40;;;1.40;;
10096;SDS011;5087;42.662;23.466;2023-04-15T10:35:04;1.40;;;1.40;;
10096;SDS011;5087;42.662;23.466;2023-04-15T10:37:34;1.40;;;1.40;;
10096;SDS011;5087;42.662;23.466;2023-04-15T10:42:44;1.40;;;1.40;;
10096;SDS011;5087;42.662;23.466;2023-04-15T10:45:17;1.30;;;1.30;;
10096;SDS011;5087;42.662;23.466;2023-04-15T10:47:44;1.27;;;1.27;;
10096;SDS011;5087;42.662;23.466;2023-04-15T10:50:11;1.20;;;1.20;;
10096;SDS011;5087;42.662;23.466;2023-04-15T10:52:39;1.20;;;1.20;;
10096;SDS011;5087;42.662;23.466;2023-04-15T10:55:11;1.20;;;1.20;;
10096;SDS011;5087;42.662;23.466;2023-04-15T10:57:39;1.40;;;1.40;;
10096;SDS011;5087;42.662;23.466;2023-04-15T11:00:13;1.20;;;1.20;;
10096;SDS011;5087;42.662;23.466;2023-04-15T11:02:43;1.20;;;1.20;;
10096;SDS011;5087;42.662;23.466;2023-04-15T11:05:11;3.20;;;3.07;;
10096;SDS011;5087;42.662;23.466;2023-04-15T11:07:39;1.30;;;1.30;;
10096;SDS011;5087;42.662;23.466;2023-04-15T11:12:55;1.10;;;1.10;;
10096;SDS011;5087;42.662;23.466;2023-04-15T11:15:27;1.20;;;1.20;;
10096;SDS011;5087;42.662;23.466;2023-04-15T11:17:56;1.00;;;1.00;;
10096;SDS011;5087;42.662;23.466;2023-04-15T11:20:24;1.10;;;1.10;;
10096;SDS011;5087;42.662;23.466;2023-04-15T11:22:51;1.10;;;1.10;;
10096;SDS011;5087;42.662;23.466;2023-04-15T11:25:22;1.10;;;1.10;;
10096;SDS011;5087;42.662;23.466;2023-04-15T11:27:52;1.10;;;1.10;;
10096;SDS011;5087;42.662;23.466;2023-04-15T11:30:20;1.30;;;1.30;;
10096;SDS011;5087;42.662;23.466;2023-04-15T11:32:47;1.10;;;1.10;;
10096;SDS011;5087;42.662;23.466;2023-04-15T11:35:16;1.10;;;1.10;;
10096;SDS011;5087;42.662;23.466;2023-04-15T11:37:44;1.60;;;1.60;;
10096;SDS011;5087;42.662;23.466;2023-04-15T11:40:12;1.33;;;1.33;;
10096;SDS011;5087;42.662;23.466;2023-04-15T11:42:41;1.10;;;1.10;;
10096;SDS011;5087;42.662;23.466;2023-04-15T11:45:08;1.57;;;1.53;;
10096;SDS011;5087;42.662;23.466;2023-04-15T11:47:35;1.00;;;1.00;;
10096;SDS011;5087;42.662;23.466;2023-04-15T11:50:19;1.10;;;1.10;;
10096;SDS011;5087;42.662;23.466;2023-04-15T11:52:53;1.00;;;1.00;;
10096;SDS011;5087;42.662;23.466;2023-04-15T11:55:21;1.00;;;1.00;;
10096;SDS011;5087;42.662;23.466;2023-04-15T11:57:48;1.00;;;1.00;;
10096;SDS011;5087;42.662;23.466;2023-04-15T12:00:16;1.07;;;1.07;;
10096;SDS011;5087;42.662;23.466;2023-04-15T12:02:43;1.30;;;1.30;;
10096;SDS011;5087;42.662;23.466;2023-04-15T12:05:10;1.10;;;1.10;;
10096;SDS011;5087;42.662;23.466;2023-04-15T12:10:24;1.10;;;1.10;;
10096;SDS011;5087;42.662;23.466;2023-04-15T12:12:51;1.10;;;1.10;;
10096;SDS011;5087;42.662;23.466;2023-04-15T12:15:20;1.20;;;1.20;;
10096;SDS011;5087;42.662;23.466;2023-04-15T12:17:47;1.10;;;1.10;;
10096;SDS011;5087;42.662;23.466;2023-04-15T12:20:19;1.10;;;1.10;;
10096;SDS011;5087;42.662;23.466;2023-04-15T12:22:46;1.10;;;1.10;;
10096;SDS011;5087;42.662;23.466;2023-04-15T12:25:13;1.20;;;1.20;;
10096;SDS011;5087;42.662;23.466;2023-04-15T12:27:43;1.20;;;1.20;;
10096;SDS011;5087;42.662;23.466;2023-04-15T12:30:16;1.10;;;1.10;;
10096;SDS011;5087;42.662;23.466;2023-04-15T12:32:43;1.10;;;1.10;;
10096;SDS011;5087;42.662;23.466;2023-04-15T12:35:12;1.10;;;1.10;;
10096;SDS011;5087;42.662;23.466;2023-04-15T12:37:39;1.10;;;1.10;;
10096;SDS011;5087;42.662;23.466;2023-04-15T12:40:06;1.10;;;1.10;;
10096;SDS011;5087;42.662;23.466;2023-04-15T12:42:34;1.20;;;1.20;;
10096;SDS011;5087;42.662;23.466;2023-04-15T12:45:03;1.10;;;1.10;;
10096;SDS011;5087;42.662;23.466;2023-04-15T12:47:30;1.10;;;1.10;;
10096;SDS011;5087;42.662;23.466;2023-04-15T12:49:57;1.10;;;1.10;;
10096;SDS011;5087;42.662;23.466;2023-04-15T12:52:24;1.00;;;1.00;;
10096;SDS011;5087;42.662;23.466;2023-04-15T12:54:52;1.10;;;1.10;;
10096;SDS011;5087;42.662;23.466;2023-04-15T12:57:19;1.00;;;1.00;;
10096;SDS011;5087;42.662;23.466;2023-04-15T12:59:46;1.10;;;1.10;;
10096;SDS011;5087;42.662;23.466;2023-04-15T13:02:15;1.00;;;1.00;;
10096;SDS011;5087;42.662;23.466;2023-04-15T13:04:54;1.00;;;1.00;;
10096;SDS011;5087;42.662;23.466;2023-04-15T13:07:21;1.00;;;1.00;;
10096;SDS011;5087;42.662;23.466;2023-04-15T13:09:48;1.00;;;1.00;;
10096;SDS011;5087;42.662;23.466;2023-04-15T13:12:17;0.90;;;0.90;;
10096;SDS011;5087;42.662;23.466;2023-04-15T13:14:45;1.00;;;1.00;;
10096;SDS011;5087;42.662;23.466;2023-04-15T13:17:12;1.00;;;1.00;;
10096;SDS011;5087;42.662;23.466;2023-04-15T13:19:41;0.97;;;0.97;;
10096;SDS011;5087;42.662;23.466;2023-04-15T13:22:09;1.00;;;1.00;;
10096;SDS011;5087;42.662;23.466;2023-04-15T13:24:37;1.00;;;1.00;;
10096;SDS011;5087;42.662;23.466;2023-04-15T13:27:05;0.93;;;0.93;;
10096;SDS011;5087;42.662;23.466;2023-04-15T13:29:35;0.90;;;0.90;;
10096;SDS011;5087;42.662;23.466;2023-04-15T13:32:04;1.00;;;1.00;;
10096;SDS011;5087;42.662;23.466;2023-04-15T13:34:31;0.90;;;0.90;;
10096;SDS011;5087;42.662;23.466;2023-04-15T13:36:59;1.10;;;1.10;;
10096;SDS011;5087;42.662;23.466;2023-04-15T13:39:32;1.00;;;1.00;;
10096;SDS011;5087;42.662;23.466;2023-04-15T13:41:59;1.00;;;1.00;;
10096;SDS011;5087;42.662;23.466;2023-04-15T13:44:27;1.00;;;1.00;;
10096;SDS011;5087;42.662;23.466;2023-04-15T13:46:54;1.00;;;1.00;;
10096;SDS011;5087;42.662;23.466;2023-04-15T13:49:22;1.00;;;1.00;;
10096;SDS011;5087;42.662;23.466;2023-04-15T13:51:49;0.90;;;0.90;;
10096;SDS011;5087;42.662;23.466;2023-04-15T13:54:19;0.93;;;0.93;;
10096;SDS011;5087;42.662;23.466;2023-04-15T13:56:46;1.00;;;1.00;;
10096;SDS011;5087;42.662;23.466;2023-04-15T13:59:17;1.00;;;1.00;;
10096;SDS011;5087;42.662;23.466;2023-04-15T14:01:48;1.00;;;1.00;;
10096;SDS011;5087;42.662;23.466;2023-04-15T14:04:16;1.00;;;1.00;;
10096;SDS011;5087;42.662;23.466;2023-04-15T14:06:44;1.00;;;1.00;;
10096;SDS011;5087;42.662;23.466;2023-04-15T14:09:11;1.10;;;1.10;;
10096;SDS011;5087;42.662;23.466;2023-04-15T14:11:40;1.00;;;1.00;;
10096;SDS011;5087;42.662;23.466;2023-04-15T14:14:06;1.00;;;1.00;;
10096;SDS011;5087;42.662;23.466;2023-04-15T14:16:34;0.97;;;0.97;;
10096;SDS011;5087;42.662;23.466;2023-04-15T14:19:02;1.00;;;1.00;;
10096;SDS011;5087;42.662;23.466;2023-04-15T14:21:30;1.10;;;1.10;;
10096;SDS011;5087;42.662;23.466;2023-04-15T14:23:58;1.00;;;1.00;;
10096;SDS011;5087;42.662;23.466;2023-04-15T14:26:25;1.00;;;1.00;;
10096;SDS011;5087;42.662;23.466;2023-04-15T14:28:55;0.90;;;0.90;;
10096;SDS011;5087;42.662;23.466;2023-04-15T14:31:23;1.00;;;1.00;;
10096;SDS011;5087;42.662;23.466;2023-04-15T14:33:51;0.90;;;0.90;;
10096;SDS011;5087;42.662;23.466;2023-04-15T14:36:18;0.90;;;0.90;;
10096;SDS011;5087;42.662;23.466;2023-04-15T14:38:46;1.00;;;1.00;;
10096;SDS011;5087;42.662;23.466;2023-04-15T14:41:13;1.00;;;1.00;;
10096;SDS011;5087;42.662;23.466;2023-04-15T14:43:41;1.00;;;1.00;;
10096;SDS011;5087;42.662;23.466;2023-04-15T14:46:10;0.90;;;0.90;;
10096;SDS011;5087;42.662;23.466;2023-04-15T14:48:38;1.00;;;1.00;;
10096;SDS011;5087;42.662;23.466;2023-04-15T14:51:05;1.00;;;1.00;;
10096;SDS011;5087;42.662;23.466;2023-04-15T14:53:33;1.10;;;1.10;;
10096;SDS011;5087;42.662;23.466;2023-04-15T14:56:01;1.00;;;1.00;;
10096;SDS011;5087;42.662;23.466;2023-04-15T14:58:32;0.97;;;0.97;;
10096;SDS011;5087;42.662;23.466;2023-04-15T15:00:59;1.07;;;1.07;;